createdAt,value
2022-12-25T00:01:12.978Z,22.92
2022-12-25T00:03:40.072Z,20.98
2022-12-25T00:06:07.274Z,33.33
2022-12-25T00:08:35.086Z,14.13
2022-12-25T00:11:08.193Z,13.85
2022-12-25T00:13:34.994Z,20.55
2022-12-25T00:16:10.035Z,12.95
2022-12-25T00:18:36.576Z,20.45
2022-12-25T00:21:06.479Z,25.02
2022-12-25T00:23:34.843Z,22.13
2022-12-25T00:26:05.956Z,19.60
2022-12-25T00:28:32.842Z,20.20
2022-12-25T00:30:59.499Z,20.20
2022-12-25T00:33:27.301Z,20.65
2022-12-25T00:35:58.716Z,22.02
2022-12-25T00:38:26.222Z,25.63
2022-12-25T00:40:53.148Z,22.65
2022-12-25T00:43:20.144Z,20.35
2022-12-25T00:46:01.883Z,16.70
2022-12-25T00:48:29.811Z,15.68
2022-12-25T00:51:01.834Z,13.82
2022-12-25T00:53:29.435Z,18.60
2022-12-25T00:56:05.277Z,13.93
2022-12-25T00:58:33.605Z,15.00
2022-12-25T01:01:00.452Z,27.83
2022-12-25T01:03:27.555Z,20.83
2022-12-25T01:06:00.670Z,18.02
2022-12-25T01:08:29.557Z,21.83
2022-12-25T01:10:57.510Z,18.25
2022-12-25T01:13:26.266Z,30.77
2022-12-25T01:15:54.338Z,20.67
2022-12-25T01:18:23.481Z,20.92
2022-12-25T01:20:50.856Z,18.05
2022-12-25T01:23:17.633Z,20.08
2022-12-25T01:25:44.307Z,13.80
2022-12-25T01:28:11.016Z,21.08
2022-12-25T01:30:37.683Z,18.92
2022-12-25T01:33:04.470Z,23.85
2022-12-25T01:35:31.394Z,14.02
2022-12-25T01:37:57.970Z,19.13
2022-12-25T01:40:24.774Z,36.47
2022-12-25T01:42:51.557Z,25.55
2022-12-25T01:45:25.250Z,19.35
2022-12-25T01:47:52.413Z,15.07
2022-12-25T01:50:20.153Z,15.77
2022-12-25T01:52:49.322Z,21.15
2022-12-25T01:55:16.613Z,19.40
2022-12-25T01:57:44.239Z,19.38
2022-12-25T02:00:12.533Z,26.75
2022-12-25T02:02:41.631Z,19.95
2022-12-25T02:05:15.799Z,13.85
2022-12-25T02:07:43.077Z,17.30
2022-12-25T02:10:12.405Z,17.63
2022-12-25T02:12:40.169Z,21.27
2022-12-25T02:15:16.340Z,21.42
2022-12-25T02:17:51.204Z,18.20
2022-12-25T02:20:36.457Z,19.98
2022-12-25T02:23:21.017Z,15.05
2022-12-25T02:26:15.616Z,12.88
2022-12-25T02:28:55.102Z,18.90
2022-12-25T02:31:51.158Z,11.25
2022-12-25T02:34:26.367Z,10.23
2022-12-25T02:37:13.043Z,18.02
2022-12-25T02:39:57.949Z,18.77
2022-12-25T02:43:00.312Z,18.30
2022-12-25T02:45:59.327Z,17.05
2022-12-25T02:48:50.269Z,20.15
2022-12-25T02:51:38.462Z,12.82
2022-12-25T02:54:31.113Z,8.32
2022-12-25T02:57:18.705Z,15.75
2022-12-25T03:00:08.171Z,12.75
2022-12-25T03:02:53.783Z,16.52
2022-12-25T03:05:43.862Z,11.98
2022-12-25T03:08:34.787Z,17.33
2022-12-25T03:11:28.303Z,16.85
2022-12-25T03:14:21.786Z,18.20
2022-12-25T03:16:53.101Z,19.85
2022-12-25T03:19:46.028Z,17.40
2022-12-25T03:22:38.090Z,13.68
2022-12-25T03:25:23.510Z,12.77
2022-12-25T03:27:54.286Z,13.18
2022-12-25T03:30:42.377Z,16.58
2022-12-25T03:33:44.419Z,16.17
2022-12-25T03:36:32.411Z,10.57
2022-12-25T03:39:14.975Z,14.88
2022-12-25T03:42:06.155Z,11.55
2022-12-25T03:44:53.629Z,11.60
2022-12-25T03:47:37.217Z,16.83
2022-12-25T03:50:38.751Z,8.77
2022-12-25T03:53:30.776Z,20.95
2022-12-25T03:56:17.691Z,9.40
2022-12-25T03:59:21.064Z,15.18
2022-12-25T04:02:09.488Z,9.02
2022-12-25T04:04:55.097Z,10.20
2022-12-25T04:07:40.550Z,10.18
2022-12-25T04:10:27.107Z,8.60
2022-12-25T04:13:12.590Z,17.63
2022-12-25T04:15:58.281Z,9.18
2022-12-25T04:18:43.720Z,11.32
2022-12-25T04:21:29.244Z,11.45
2022-12-25T04:24:14.448Z,17.27
2022-12-25T04:27:00.121Z,16.98
2022-12-25T04:29:45.417Z,12.48
2022-12-25T04:32:30.919Z,13.55
2022-12-25T04:35:16.137Z,15.82
2022-12-25T04:37:42.742Z,11.32
2022-12-25T04:40:10.033Z,11.40
2022-12-25T04:42:36.648Z,10.27
2022-12-25T04:45:03.713Z,10.00
2022-12-25T04:47:30.417Z,12.27
2022-12-25T04:49:57.097Z,11.10
2022-12-25T04:52:23.823Z,11.15
2022-12-25T04:54:50.469Z,7.97
2022-12-25T04:57:17.299Z,6.28
2022-12-25T04:59:43.940Z,11.27
2022-12-25T05:02:10.692Z,11.38
2022-12-25T05:04:37.434Z,6.85
2022-12-25T05:07:04.024Z,11.55
2022-12-25T05:09:30.735Z,11.48
2022-12-25T05:11:58.597Z,9.50
2022-12-25T05:14:25.184Z,14.63
2022-12-25T05:16:52.051Z,16.60
2022-12-25T05:19:18.689Z,11.23
2022-12-25T05:21:45.557Z,11.18
2022-12-25T05:24:12.339Z,10.10
2022-12-25T05:26:40.156Z,11.35
2022-12-25T05:29:06.734Z,8.70
2022-12-25T05:31:33.491Z,6.53
2022-12-25T05:34:00.334Z,9.73
2022-12-25T05:36:27.332Z,9.32
2022-12-25T05:38:54.390Z,11.80
2022-12-25T05:41:21.002Z,8.20
2022-12-25T05:43:47.806Z,13.68
2022-12-25T05:46:14.975Z,13.18
2022-12-25T05:48:43.808Z,9.90
2022-12-25T05:51:12.848Z,8.95
2022-12-25T05:53:42.296Z,8.75
2022-12-25T05:56:09.742Z,9.70
2022-12-25T05:58:38.346Z,12.00
2022-12-25T06:01:11.095Z,10.52
2022-12-25T06:03:37.808Z,8.95
2022-12-25T06:06:04.985Z,12.43
2022-12-25T06:08:31.656Z,6.20
2022-12-25T06:10:58.689Z,10.18
2022-12-25T06:13:25.351Z,9.43
2022-12-25T06:15:52.063Z,8.60
2022-12-25T06:18:18.755Z,11.77
2022-12-25T06:20:45.407Z,8.23
2022-12-25T06:23:12.950Z,6.05
2022-12-25T06:25:40.406Z,9.93
2022-12-25T06:28:07.700Z,12.20
2022-12-25T06:30:34.726Z,8.70
2022-12-25T06:33:03.408Z,8.75
2022-12-25T06:35:29.952Z,8.82
2022-12-25T06:37:56.815Z,7.72
2022-12-25T06:40:23.431Z,8.70
2022-12-25T06:42:52.041Z,9.27
2022-12-25T06:45:18.633Z,6.40
2022-12-25T06:47:46.650Z,8.13
2022-12-25T06:50:13.522Z,8.27
2022-12-25T06:52:40.103Z,5.80
2022-12-25T06:55:07.238Z,9.30
2022-12-25T06:57:33.819Z,6.22
2022-12-25T07:00:00.482Z,8.98
2022-12-25T07:02:27.450Z,5.25
2022-12-25T07:04:54.648Z,6.50
2022-12-25T07:07:23.135Z,9.90
2022-12-25T07:09:49.850Z,8.30
2022-12-25T07:12:19.585Z,7.20
2022-12-25T07:14:50.206Z,11.25
2022-12-25T07:17:18.126Z,9.15
2022-12-25T07:19:46.647Z,13.02
2022-12-25T07:22:14.150Z,7.82
2022-12-25T07:24:40.888Z,12.00
2022-12-25T07:27:08.427Z,8.73
2022-12-25T07:29:35.560Z,9.45
2022-12-25T07:32:02.434Z,8.60
2022-12-25T07:34:29.088Z,6.47
2022-12-25T07:36:55.998Z,7.95
2022-12-25T07:39:24.027Z,11.57
2022-12-25T07:41:51.395Z,6.95
2022-12-25T07:44:18.417Z,6.40
2022-12-25T07:46:45.220Z,14.57
2022-12-25T07:49:12.634Z,8.65
2022-12-25T07:51:39.368Z,6.45
2022-12-25T07:54:06.282Z,8.23
2022-12-25T07:56:33.031Z,6.88
2022-12-25T07:58:59.853Z,9.55
2022-12-25T08:01:27.858Z,9.32
2022-12-25T08:03:59.608Z,10.93
2022-12-25T08:06:34.955Z,10.00
2022-12-25T08:09:10.919Z,11.90
2022-12-25T08:11:38.253Z,4.68
2022-12-25T08:14:09.074Z,9.13
2022-12-25T08:16:36.186Z,7.10
2022-12-25T08:19:22.550Z,10.05
2022-12-25T08:21:49.091Z,5.88
2022-12-25T08:24:15.711Z,4.20
2022-12-25T08:26:43.373Z,6.20
2022-12-25T08:29:10.093Z,5.60
2022-12-25T08:31:42.495Z,7.40
2022-12-25T08:36:41.518Z,3.97
2022-12-25T08:39:10.377Z,6.88
2022-12-25T08:41:37.125Z,6.63
2022-12-25T08:44:04.840Z,5.65
2022-12-25T08:46:31.924Z,7.72
2022-12-25T08:48:58.757Z,6.18
2022-12-25T08:51:26.519Z,10.43
2022-12-25T08:53:57.889Z,8.63
2022-12-25T08:56:24.609Z,8.27
2022-12-25T08:58:51.251Z,5.72
2022-12-25T09:01:18.128Z,6.43
2022-12-25T09:03:45.418Z,4.82
2022-12-25T09:06:15.490Z,6.65
2022-12-25T09:08:48.719Z,7.32
2022-12-25T09:11:17.580Z,4.45
2022-12-25T09:13:44.302Z,3.60
2022-12-25T09:16:14.262Z,3.28
2022-12-25T09:18:41.373Z,4.05
2022-12-25T09:21:11.242Z,6.20
2022-12-25T09:23:38.023Z,6.15
2022-12-25T09:26:07.208Z,6.60
2022-12-25T09:28:34.023Z,10.13
2022-12-25T09:31:01.264Z,7.22
2022-12-25T09:33:29.202Z,5.30
2022-12-25T09:36:02.058Z,5.00
2022-12-25T09:38:29.736Z,5.20
2022-12-25T09:41:11.720Z,4.38
2022-12-25T09:43:53.045Z,6.28
2022-12-25T09:46:23.529Z,5.35
2022-12-25T09:49:15.192Z,4.95
2022-12-25T09:51:43.955Z,4.63
2022-12-25T09:54:42.323Z,4.80
2022-12-25T09:57:12.775Z,3.30
2022-12-25T09:59:40.183Z,3.25
2022-12-25T10:02:35.559Z,5.30
2022-12-25T10:05:16.546Z,4.70
2022-12-25T10:08:00.650Z,6.55
2022-12-25T10:10:52.115Z,6.95
2022-12-25T10:13:27.605Z,4.78
2022-12-25T10:16:10.946Z,5.07
2022-12-25T10:19:11.817Z,6.07
2022-12-25T10:21:38.775Z,5.03
2022-12-25T10:24:23.634Z,7.25
2022-12-25T10:26:53.331Z,4.13
2022-12-25T10:29:20.234Z,3.17
2022-12-25T10:31:49.770Z,6.00
2022-12-25T10:34:18.147Z,4.30
2022-12-25T10:36:46.339Z,10.68
2022-12-25T10:39:22.388Z,4.70
2022-12-25T10:42:07.769Z,6.80
2022-12-25T10:44:35.089Z,9.88
2022-12-25T10:47:04.330Z,5.78
2022-12-25T10:49:36.021Z,4.55
2022-12-25T10:52:04.109Z,8.73
2022-12-25T10:54:35.111Z,4.78
2022-12-25T10:57:14.797Z,4.95
2022-12-25T10:59:52.789Z,5.93
2022-12-25T11:02:27.871Z,10.30
2022-12-25T11:05:06.365Z,3.58
2022-12-25T11:07:35.187Z,5.47
2022-12-25T11:10:07.181Z,6.20
2022-12-25T11:12:42.161Z,7.97
2022-12-25T11:15:35.918Z,3.65
2022-12-25T11:18:30.044Z,5.82
2022-12-25T11:21:00.354Z,4.93
2022-12-25T11:23:29.897Z,5.60
2022-12-25T11:25:59.065Z,4.95
2022-12-25T11:28:27.248Z,5.95
2022-12-25T11:31:01.592Z,6.10
2022-12-25T11:33:39.692Z,6.97
2022-12-25T11:36:27.245Z,5.10
2022-12-25T11:38:55.045Z,3.58
2022-12-25T11:41:30.611Z,6.07
2022-12-25T11:44:05.149Z,5.75
2022-12-25T11:46:41.813Z,5.38
2022-12-25T11:49:16.429Z,5.32
2022-12-25T11:51:46.499Z,4.18
2022-12-25T11:54:26.655Z,4.55
2022-12-25T11:56:55.877Z,4.38
2022-12-25T11:59:38.697Z,4.28
2022-12-25T12:02:26.020Z,6.65
2022-12-25T12:05:04.603Z,5.50
2022-12-25T12:07:33.850Z,3.53
2022-12-25T12:10:27.859Z,6.38
2022-12-25T12:13:12.087Z,3.97
2022-12-25T12:15:45.186Z,3.92
2022-12-25T12:18:26.829Z,5.75
2022-12-25T12:21:02.921Z,5.78
2022-12-25T12:23:33.094Z,5.32
2022-12-25T12:26:00.595Z,4.88
2022-12-25T12:28:31.900Z,8.05
2022-12-25T12:31:03.044Z,4.38
2022-12-25T12:33:35.574Z,3.78
2022-12-25T12:36:05.045Z,8.48
2022-12-25T12:38:33.745Z,3.67
2022-12-25T12:41:02.834Z,4.75
2022-12-25T12:43:35.589Z,4.57
2022-12-25T12:46:31.041Z,4.90
2022-12-25T12:49:23.246Z,8.77
2022-12-25T12:51:50.656Z,7.70
2022-12-25T12:54:24.328Z,3.00
2022-12-25T12:57:04.788Z,5.55
2022-12-25T12:59:46.880Z,4.53
2022-12-25T13:02:58.668Z,3.10
2022-12-25T13:05:34.969Z,3.90
2022-12-25T13:08:40.436Z,3.97
2022-12-25T13:11:21.252Z,5.55
2022-12-25T13:13:50.879Z,6.78
2022-12-25T13:16:26.645Z,5.57
2022-12-25T13:18:56.287Z,5.67
2022-12-25T13:21:27.714Z,8.18
2022-12-25T13:24:06.453Z,5.72
2022-12-25T13:26:33.180Z,7.28
2022-12-25T13:29:00.005Z,5.03
2022-12-25T13:31:28.868Z,7.38
2022-12-25T13:34:20.004Z,4.30
2022-12-25T13:36:46.739Z,4.18
2022-12-25T13:39:16.709Z,8.20
2022-12-25T13:42:06.170Z,5.97
2022-12-25T13:44:41.832Z,5.88
2022-12-25T13:47:17.429Z,4.95
2022-12-25T13:49:44.485Z,4.63
2022-12-25T13:52:14.709Z,7.15
2022-12-25T13:54:53.982Z,5.50
2022-12-25T13:57:25.111Z,6.80
2022-12-25T13:59:51.768Z,8.52
2022-12-25T14:02:21.049Z,7.47
2022-12-25T14:04:47.828Z,8.55
2022-12-25T14:07:21.080Z,5.72
2022-12-25T14:09:55.206Z,6.03
2022-12-25T14:12:23.587Z,5.78
2022-12-25T14:14:53.707Z,7.32
2022-12-25T14:17:21.639Z,6.05
2022-12-25T14:20:07.605Z,6.00
2022-12-25T14:22:36.138Z,7.95
2022-12-25T14:25:03.211Z,6.70
2022-12-25T14:27:30.973Z,6.60
2022-12-25T14:30:00.542Z,5.45
2022-12-25T14:32:37.792Z,5.47
2022-12-25T14:35:04.913Z,7.07
2022-12-25T14:37:33.343Z,5.88
2022-12-25T14:40:20.309Z,7.05
2022-12-25T14:42:56.299Z,12.05
2022-12-25T14:45:32.638Z,10.88
2022-12-25T14:48:03.054Z,6.47
2022-12-25T14:50:38.733Z,9.25
2022-12-25T14:53:18.382Z,9.32
2022-12-25T14:55:54.602Z,9.45
2022-12-25T14:58:27.876Z,6.93
2022-12-25T15:00:59.926Z,6.03
2022-12-25T15:03:30.218Z,5.65
2022-12-25T15:06:05.623Z,6.57
2022-12-25T15:08:34.841Z,11.43
2022-12-25T15:11:03.215Z,6.72
2022-12-25T15:13:31.443Z,8.63
2022-12-25T15:16:16.218Z,6.25
2022-12-25T15:18:45.468Z,6.53
2022-12-25T15:21:33.821Z,6.35
2022-12-25T15:24:01.134Z,8.90
2022-12-25T15:26:30.160Z,5.95
2022-12-25T15:28:57.275Z,7.38
2022-12-25T15:31:26.998Z,6.82
2022-12-25T15:33:56.477Z,8.70
2022-12-25T15:36:24.460Z,6.60
2022-12-25T15:38:51.433Z,7.47
2022-12-25T15:41:43.961Z,7.10
2022-12-25T15:44:12.555Z,6.68
2022-12-25T15:46:39.572Z,9.38
2022-12-25T15:49:07.317Z,7.45
2022-12-25T15:51:35.482Z,8.02
2022-12-25T15:54:02.538Z,9.85
2022-12-25T15:56:29.743Z,6.93
2022-12-25T15:58:57.019Z,10.35
2022-12-25T16:01:23.883Z,8.60
2022-12-25T16:03:50.563Z,6.95
2022-12-25T16:06:18.827Z,10.43
2022-12-25T16:08:45.892Z,9.43
2022-12-25T16:11:13.047Z,8.25
2022-12-25T16:13:41.935Z,10.25
2022-12-25T16:16:08.717Z,13.18
2022-12-25T16:18:35.409Z,10.95
2022-12-25T16:21:02.784Z,14.80
2022-12-25T16:23:30.828Z,10.18
2022-12-25T16:25:57.466Z,10.10
2022-12-25T16:28:24.130Z,12.18
2022-12-25T16:30:51.019Z,14.00
2022-12-25T16:33:17.738Z,11.60
2022-12-25T16:35:45.372Z,14.60
2022-12-25T16:38:12.220Z,14.65
2022-12-25T16:40:39.346Z,12.57
2022-12-25T16:43:06.022Z,17.80
2022-12-25T16:45:39.296Z,20.35
2022-12-25T16:48:08.709Z,21.00
2022-12-25T16:50:38.402Z,16.77
2022-12-25T16:53:05.257Z,16.40
2022-12-25T16:55:33.619Z,17.92
2022-12-25T16:58:01.550Z,16.08
2022-12-25T17:00:28.454Z,14.23
2022-12-25T17:02:56.999Z,14.65
2022-12-25T17:05:24.530Z,12.23
2022-12-25T17:07:51.735Z,10.70
2022-12-25T17:10:18.532Z,12.50
2022-12-25T17:12:45.825Z,12.77
2022-12-25T17:15:12.791Z,13.82
2022-12-25T17:17:39.432Z,13.80
2022-12-25T17:20:06.979Z,12.63
2022-12-25T17:22:33.704Z,10.63
2022-12-25T17:25:00.382Z,9.65
2022-12-25T17:27:27.026Z,12.27
2022-12-25T17:29:53.640Z,13.77
2022-12-25T17:32:20.297Z,13.50
2022-12-25T17:34:47.427Z,12.45
2022-12-25T17:37:13.978Z,15.40
2022-12-25T17:39:40.698Z,14.30
2022-12-25T17:42:07.712Z,13.90
2022-12-25T17:44:34.364Z,11.23
2022-12-25T17:47:01.388Z,15.93
2022-12-25T17:49:28.152Z,17.00
2022-12-25T17:51:54.897Z,14.48
2022-12-25T17:54:21.733Z,17.52
2022-12-25T17:56:49.610Z,15.70
2022-12-25T17:59:18.773Z,14.07
2022-12-25T18:01:46.413Z,12.77
2022-12-25T18:04:13.416Z,16.08
2022-12-25T18:06:40.175Z,17.20
2022-12-25T18:09:07.465Z,17.10
2022-12-25T18:11:36.851Z,17.35
2022-12-25T18:14:05.971Z,18.52
2022-12-25T18:16:37.152Z,16.00
2022-12-25T18:19:04.677Z,13.70
2022-12-25T18:21:31.921Z,16.75
2022-12-25T18:24:00.030Z,14.75
2022-12-25T18:26:28.816Z,14.77
2022-12-25T18:28:55.888Z,16.05
2022-12-25T18:31:26.425Z,19.90
2022-12-25T18:33:54.028Z,15.43
2022-12-25T18:36:23.437Z,18.30
2022-12-25T18:38:51.564Z,20.38
2022-12-25T18:41:20.018Z,25.13
2022-12-25T18:43:53.619Z,23.70
2022-12-25T18:46:24.181Z,21.85
2022-12-25T18:48:52.290Z,23.95
2022-12-25T18:51:19.165Z,23.25
2022-12-25T18:53:46.085Z,24.58
2022-12-25T18:56:15.690Z,22.73
2022-12-25T18:58:43.142Z,34.10
2022-12-25T19:01:14.285Z,32.22
2022-12-25T19:03:44.599Z,32.63
2022-12-25T19:06:21.835Z,26.45
2022-12-25T19:08:48.790Z,30.05
2022-12-25T19:11:16.427Z,26.73
2022-12-25T19:13:43.689Z,30.27
2022-12-25T19:16:10.780Z,31.75
2022-12-25T19:18:38.753Z,30.50
2022-12-25T19:21:08.694Z,29.23
2022-12-25T19:23:35.723Z,38.08
2022-12-25T19:26:05.668Z,33.22
2022-12-25T19:28:32.471Z,33.05
2022-12-25T19:31:00.310Z,37.58
2022-12-25T19:33:26.931Z,32.60
2022-12-25T19:35:53.648Z,31.60
2022-12-25T19:38:21.407Z,31.83
2022-12-25T19:41:00.847Z,25.83
2022-12-25T19:43:33.802Z,28.52
2022-12-25T19:46:01.962Z,28.52
2022-12-25T19:48:29.665Z,28.60
2022-12-25T19:50:56.611Z,32.42
2022-12-25T19:53:23.818Z,34.55
2022-12-25T19:55:54.594Z,27.92
2022-12-25T19:58:22.553Z,33.20
2022-12-25T20:00:59.525Z,31.45
2022-12-25T20:03:27.146Z,30.35
2022-12-25T20:05:53.886Z,30.67
2022-12-25T20:08:20.519Z,34.30
2022-12-25T20:10:47.348Z,37.70
2022-12-25T20:13:14.087Z,43.97
2022-12-25T20:15:42.259Z,39.20
2022-12-25T20:18:08.869Z,36.90
2022-12-25T20:20:35.709Z,40.55
2022-12-25T20:23:02.600Z,36.35
2022-12-25T20:25:29.441Z,43.13
2022-12-25T20:27:56.229Z,36.50
2022-12-25T20:30:23.028Z,39.83
2022-12-25T20:32:50.693Z,44.20
2022-12-25T20:35:17.640Z,41.88
2022-12-25T20:37:44.863Z,47.08
2022-12-25T20:40:12.409Z,45.08
2022-12-25T20:42:39.222Z,36.75
2022-12-25T20:45:07.737Z,42.28
2022-12-25T20:47:35.190Z,34.85
2022-12-25T20:50:02.268Z,30.90
2022-12-25T20:52:28.899Z,31.90
2022-12-25T20:54:55.609Z,33.42
2022-12-25T20:57:22.381Z,29.67
2022-12-25T20:59:49.383Z,29.27
2022-12-25T21:02:34.811Z,34.70
2022-12-25T21:05:03.597Z,28.23
2022-12-25T21:07:30.231Z,30.95
2022-12-25T21:09:56.970Z,27.05
2022-12-25T21:12:23.743Z,23.65
2022-12-25T21:14:50.418Z,27.08
2022-12-25T21:17:17.513Z,28.45
2022-12-25T21:19:44.315Z,22.98
2022-12-25T21:22:11.089Z,25.92
2022-12-25T21:24:37.825Z,27.55
2022-12-25T21:27:04.668Z,24.52
2022-12-25T21:29:31.428Z,21.73
2022-12-25T21:32:16.694Z,26.08
2022-12-25T21:34:43.443Z,24.92
2022-12-25T21:37:10.134Z,26.10
2022-12-25T21:39:36.936Z,29.08
2022-12-25T21:42:04.784Z,29.92
2022-12-25T21:44:50.614Z,31.20
2022-12-25T21:47:17.282Z,23.60
2022-12-25T21:50:02.979Z,27.73
2022-12-25T21:52:29.689Z,25.05
2022-12-25T21:54:56.424Z,20.23
2022-12-25T21:57:24.816Z,22.50
2022-12-25T21:59:51.558Z,19.77
2022-12-25T22:02:18.462Z,20.85
2022-12-25T22:04:45.294Z,18.92
2022-12-25T22:07:19.180Z,20.30
2022-12-25T22:09:47.747Z,18.67
2022-12-25T22:12:34.773Z,23.58
2022-12-25T22:15:03.911Z,21.75
2022-12-25T22:18:00.484Z,21.17
2022-12-25T22:20:36.627Z,17.10
2022-12-25T22:23:04.131Z,19.45
2022-12-25T22:25:30.886Z,17.15
2022-12-25T22:27:57.801Z,17.67
2022-12-25T22:30:28.390Z,15.57
2022-12-25T22:32:56.025Z,20.10
2022-12-25T22:35:23.511Z,17.13
2022-12-25T22:37:50.500Z,18.92
2022-12-25T22:40:19.019Z,16.60
2022-12-25T22:42:45.938Z,13.88
2022-12-25T22:45:13.084Z,20.50
2022-12-25T22:47:40.628Z,15.93
2022-12-25T22:50:08.349Z,10.82
2022-12-25T22:52:37.259Z,13.02
2022-12-25T22:55:05.259Z,12.73
2022-12-25T22:57:31.907Z,11.90
2022-12-25T23:00:02.444Z,9.90
2022-12-25T23:02:29.385Z,11.35
2022-12-25T23:04:56.162Z,10.75
2022-12-25T23:07:22.948Z,9.95
2022-12-25T23:09:49.702Z,11.02
2022-12-25T23:12:34.961Z,11.70
2022-12-25T23:15:01.667Z,9.48
2022-12-25T23:17:47.326Z,9.20
2022-12-25T23:20:33.796Z,9.20
2022-12-25T23:23:20.058Z,9.40
2022-12-25T23:26:05.564Z,8.93
2022-12-25T23:28:52.188Z,11.73
2022-12-25T23:31:22.605Z,9.80
2022-12-25T23:33:50.290Z,11.13
2022-12-25T23:36:16.933Z,8.80
2022-12-25T23:38:43.730Z,11.45
2022-12-25T23:41:10.431Z,9.25
2022-12-25T23:43:37.109Z,9.65
2022-12-25T23:46:03.836Z,9.55
2022-12-25T23:48:30.717Z,9.60
2022-12-25T23:51:03.789Z,10.15
2022-12-25T23:53:31.043Z,9.27
2022-12-25T23:55:57.976Z,8.90
2022-12-25T23:58:27.289Z,7.45
